sensor_id;sensor_type;location;lat;lon;timestamp;P1;durP1;ratioP1;P2;durP2;ratioP2
6282;SDS011;3174;53.486;9.568;2023-03-23T00:00:01;7.00;;;4.60;;
6282;SDS011;3174;53.486;9.568;2023-03-23T00:02:31;10.80;;;5.70;;
6282;SDS011;3174;53.486;9.568;2023-03-23T00:05:00;8.93;;;4.67;;
6282;SDS011;3174;53.486;9.568;2023-03-23T00:07:28;9.70;;;5.67;;
6282;SDS011;3174;53.486;9.568;2023-03-23T00:09:55;9.90;;;6.40;;
6282;SDS011;3174;53.486;9.568;2023-03-23T00:12:24;11.43;;;6.33;;
6282;SDS011;3174;53.486;9.568;2023-03-23T00:14:58;9.13;;;5.57;;
6282;SDS011;3174;53.486;9.568;2023-03-23T00:17:25;9.33;;;6.47;;
6282;SDS011;3174;53.486;9.568;2023-03-23T00:19:52;10.83;;;6.50;;
6282;SDS011;3174;53.486;9.568;2023-03-23T00:22:19;10.17;;;6.23;;
6282;SDS011;3174;53.486;9.568;2023-03-23T00:24:50;11.57;;;6.67;;
6282;SDS011;3174;53.486;9.568;2023-03-23T00:27:17;12.47;;;7.07;;
6282;SDS011;3174;53.486;9.568;2023-03-23T00:29:48;11.13;;;6.87;;
6282;SDS011;3174;53.486;9.568;2023-03-23T00:32:17;10.67;;;7.10;;
6282;SDS011;3174;53.486;9.568;2023-03-23T00:34:45;12.40;;;7.00;;
6282;SDS011;3174;53.486;9.568;2023-03-23T00:37:13;11.60;;;7.03;;
6282;SDS011;3174;53.486;9.568;2023-03-23T00:39:42;9.50;;;7.03;;
6282;SDS011;3174;53.486;9.568;2023-03-23T00:42:12;10.00;;;7.10;;
6282;SDS011;3174;53.486;9.568;2023-03-23T00:44:39;8.80;;;6.23;;
6282;SDS011;3174;53.486;9.568;2023-03-23T00:47:08;11.40;;;7.33;;
6282;SDS011;3174;53.486;9.568;2023-03-23T00:49:35;12.23;;;7.10;;
6282;SDS011;3174;53.486;9.568;2023-03-23T00:52:03;10.97;;;7.93;;
6282;SDS011;3174;53.486;9.568;2023-03-23T00:54:31;11.50;;;7.47;;
6282;SDS011;3174;53.486;9.568;2023-03-23T00:56:59;11.43;;;6.47;;
6282;SDS011;3174;53.486;9.568;2023-03-23T00:59:26;9.73;;;7.60;;
6282;SDS011;3174;53.486;9.568;2023-03-23T01:01:53;9.43;;;6.70;;
6282;SDS011;3174;53.486;9.568;2023-03-23T01:04:22;10.47;;;7.40;;
6282;SDS011;3174;53.486;9.568;2023-03-23T01:06:49;9.60;;;6.87;;
6282;SDS011;3174;53.486;9.568;2023-03-23T01:09:17;10.73;;;6.87;;
6282;SDS011;3174;53.486;9.568;2023-03-23T01:11:46;10.93;;;7.10;;
6282;SDS011;3174;53.486;9.568;2023-03-23T01:14:14;12.40;;;6.70;;
6282;SDS011;3174;53.486;9.568;2023-03-23T01:16:43;10.77;;;7.17;;
6282;SDS011;3174;53.486;9.568;2023-03-23T01:19:10;10.77;;;7.30;;
6282;SDS011;3174;53.486;9.568;2023-03-23T01:21:38;10.03;;;6.87;;
6282;SDS011;3174;53.486;9.568;2023-03-23T01:24:06;9.23;;;6.70;;
6282;SDS011;3174;53.486;9.568;2023-03-23T01:26:33;12.80;;;8.23;;
6282;SDS011;3174;53.486;9.568;2023-03-23T01:29:00;10.17;;;6.70;;
6282;SDS011;3174;53.486;9.568;2023-03-23T01:31:27;9.10;;;6.60;;
6282;SDS011;3174;53.486;9.568;2023-03-23T01:33:54;10.27;;;6.80;;
6282;SDS011;3174;53.486;9.568;2023-03-23T01:36:22;12.13;;;8.30;;
6282;SDS011;3174;53.486;9.568;2023-03-23T01:38:53;13.53;;;8.17;;
6282;SDS011;3174;53.486;9.568;2023-03-23T01:41:20;11.03;;;7.43;;
6282;SDS011;3174;53.486;9.568;2023-03-23T01:43:54;12.37;;;7.97;;
6282;SDS011;3174;53.486;9.568;2023-03-23T01:46:23;11.17;;;7.70;;
6282;SDS011;3174;53.486;9.568;2023-03-23T01:48:51;11.97;;;8.10;;
6282;SDS011;3174;53.486;9.568;2023-03-23T01:51:19;12.53;;;7.60;;
6282;SDS011;3174;53.486;9.568;2023-03-23T01:53:47;10.40;;;7.03;;
6282;SDS011;3174;53.486;9.568;2023-03-23T01:56:18;15.03;;;7.37;;
6282;SDS011;3174;53.486;9.568;2023-03-23T01:58:50;12.67;;;6.33;;
6282;SDS011;3174;53.486;9.568;2023-03-23T02:01:17;11.03;;;6.70;;
6282;SDS011;3174;53.486;9.568;2023-03-23T02:03:46;12.97;;;7.43;;
6282;SDS011;3174;53.486;9.568;2023-03-23T02:06:14;11.50;;;7.10;;
6282;SDS011;3174;53.486;9.568;2023-03-23T02:08:41;11.20;;;7.20;;
6282;SDS011;3174;53.486;9.568;2023-03-23T02:11:12;12.13;;;7.83;;
6282;SDS011;3174;53.486;9.568;2023-03-23T02:13:41;13.60;;;7.60;;
6282;SDS011;3174;53.486;9.568;2023-03-23T02:16:10;11.23;;;7.93;;
6282;SDS011;3174;53.486;9.568;2023-03-23T02:18:51;12.50;;;7.63;;
6282;SDS011;3174;53.486;9.568;2023-03-23T02:21:41;11.27;;;7.17;;
6282;SDS011;3174;53.486;9.568;2023-03-23T02:24:38;9.53;;;7.33;;
6282;SDS011;3174;53.486;9.568;2023-03-23T02:27:14;11.93;;;7.87;;
6282;SDS011;3174;53.486;9.568;2023-03-23T02:29:56;9.37;;;6.50;;
6282;SDS011;3174;53.486;9.568;2023-03-23T02:32:39;11.03;;;7.70;;
6282;SDS011;3174;53.486;9.568;2023-03-23T02:35:17;10.57;;;6.57;;
6282;SDS011;3174;53.486;9.568;2023-03-23T02:37:46;10.53;;;7.50;;
6282;SDS011;3174;53.486;9.568;2023-03-23T02:40:17;9.93;;;6.23;;
6282;SDS011;3174;53.486;9.568;2023-03-23T02:42:45;9.90;;;6.10;;
6282;SDS011;3174;53.486;9.568;2023-03-23T02:45:14;11.93;;;6.87;;
6282;SDS011;3174;53.486;9.568;2023-03-23T02:47:42;12.27;;;7.27;;
6282;SDS011;3174;53.486;9.568;2023-03-23T02:50:10;13.00;;;6.70;;
6282;SDS011;3174;53.486;9.568;2023-03-23T02:52:40;9.37;;;6.17;;
6282;SDS011;3174;53.486;9.568;2023-03-23T02:55:08;13.13;;;7.80;;
6282;SDS011;3174;53.486;9.568;2023-03-23T02:57:36;10.00;;;7.00;;
6282;SDS011;3174;53.486;9.568;2023-03-23T03:00:04;11.63;;;6.50;;
6282;SDS011;3174;53.486;9.568;2023-03-23T03:02:35;10.43;;;6.57;;
6282;SDS011;3174;53.486;9.568;2023-03-23T03:05:07;10.47;;;6.97;;
6282;SDS011;3174;53.486;9.568;2023-03-23T03:10:34;9.73;;;6.87;;
6282;SDS011;3174;53.486;9.568;2023-03-23T03:13:05;11.77;;;7.80;;
6282;SDS011;3174;53.486;9.568;2023-03-23T03:15:36;10.30;;;7.37;;
6282;SDS011;3174;53.486;9.568;2023-03-23T03:18:06;12.93;;;7.50;;
6282;SDS011;3174;53.486;9.568;2023-03-23T03:20:37;10.87;;;7.30;;
6282;SDS011;3174;53.486;9.568;2023-03-23T03:23:08;9.30;;;6.43;;
6282;SDS011;3174;53.486;9.568;2023-03-23T03:25:38;10.13;;;6.90;;
6282;SDS011;3174;53.486;9.568;2023-03-23T03:28:06;9.57;;;7.00;;
6282;SDS011;3174;53.486;9.568;2023-03-23T03:30:33;11.80;;;7.23;;
6282;SDS011;3174;53.486;9.568;2023-03-23T03:33:01;10.23;;;7.33;;
6282;SDS011;3174;53.486;9.568;2023-03-23T03:35:28;11.10;;;6.70;;
6282;SDS011;3174;53.486;9.568;2023-03-23T03:37:56;9.90;;;7.10;;
6282;SDS011;3174;53.486;9.568;2023-03-23T03:40:27;11.33;;;7.80;;
6282;SDS011;3174;53.486;9.568;2023-03-23T03:42:53;13.50;;;7.87;;
6282;SDS011;3174;53.486;9.568;2023-03-23T03:45:20;12.53;;;6.90;;
6282;SDS011;3174;53.486;9.568;2023-03-23T03:47:47;13.67;;;7.33;;
6282;SDS011;3174;53.486;9.568;2023-03-23T03:50:14;9.13;;;6.43;;
6282;SDS011;3174;53.486;9.568;2023-03-23T03:52:41;11.67;;;7.40;;
6282;SDS011;3174;53.486;9.568;2023-03-23T03:55:09;10.73;;;6.97;;
6282;SDS011;3174;53.486;9.568;2023-03-23T03:57:37;10.43;;;6.93;;
6282;SDS011;3174;53.486;9.568;2023-03-23T04:00:05;11.13;;;7.20;;
6282;SDS011;3174;53.486;9.568;2023-03-23T04:02:40;10.30;;;7.17;;
6282;SDS011;3174;53.486;9.568;2023-03-23T04:05:12;10.43;;;6.70;;
6282;SDS011;3174;53.486;9.568;2023-03-23T04:07:39;9.17;;;6.23;;
6282;SDS011;3174;53.486;9.568;2023-03-23T04:10:07;10.33;;;5.97;;
6282;SDS011;3174;53.486;9.568;2023-03-23T04:12:37;8.43;;;5.87;;
6282;SDS011;3174;53.486;9.568;2023-03-23T04:15:04;10.47;;;6.90;;
6282;SDS011;3174;53.486;9.568;2023-03-23T04:17:32;9.53;;;5.73;;
6282;SDS011;3174;53.486;9.568;2023-03-23T04:19:59;11.67;;;6.67;;
6282;SDS011;3174;53.486;9.568;2023-03-23T04:22:31;9.60;;;6.30;;
6282;SDS011;3174;53.486;9.568;2023-03-23T04:24:58;10.97;;;6.97;;
6282;SDS011;3174;53.486;9.568;2023-03-23T04:27:31;12.23;;;6.43;;
6282;SDS011;3174;53.486;9.568;2023-03-23T04:30:00;9.80;;;7.03;;
6282;SDS011;3174;53.486;9.568;2023-03-23T04:32:28;11.73;;;6.37;;
6282;SDS011;3174;53.486;9.568;2023-03-23T04:34:55;8.13;;;6.17;;
6282;SDS011;3174;53.486;9.568;2023-03-23T04:37:23;11.43;;;6.50;;
6282;SDS011;3174;53.486;9.568;2023-03-23T04:39:54;11.03;;;7.57;;
6282;SDS011;3174;53.486;9.568;2023-03-23T04:42:25;15.43;;;10.10;;
6282;SDS011;3174;53.486;9.568;2023-03-23T04:44:53;13.73;;;9.07;;
6282;SDS011;3174;53.486;9.568;2023-03-23T04:47:22;11.47;;;7.47;;
6282;SDS011;3174;53.486;9.568;2023-03-23T04:49:49;11.63;;;7.53;;
6282;SDS011;3174;53.486;9.568;2023-03-23T04:52:17;11.20;;;7.07;;
6282;SDS011;3174;53.486;9.568;2023-03-23T04:54:45;14.23;;;7.30;;
6282;SDS011;3174;53.486;9.568;2023-03-23T04:57:12;10.30;;;7.27;;
6282;SDS011;3174;53.486;9.568;2023-03-23T04:59:40;10.87;;;7.63;;
6282;SDS011;3174;53.486;9.568;2023-03-23T05:02:08;11.07;;;7.63;;
6282;SDS011;3174;53.486;9.568;2023-03-23T05:04:37;11.80;;;8.37;;
6282;SDS011;3174;53.486;9.568;2023-03-23T05:07:05;11.43;;;7.33;;
6282;SDS011;3174;53.486;9.568;2023-03-23T05:09:33;8.30;;;6.50;;
6282;SDS011;3174;53.486;9.568;2023-03-23T05:12:03;9.47;;;6.60;;
6282;SDS011;3174;53.486;9.568;2023-03-23T05:14:31;9.50;;;6.53;;
6282;SDS011;3174;53.486;9.568;2023-03-23T05:16:57;10.80;;;7.00;;
6282;SDS011;3174;53.486;9.568;2023-03-23T05:19:24;10.17;;;7.20;;
6282;SDS011;3174;53.486;9.568;2023-03-23T05:21:56;11.67;;;7.00;;
6282;SDS011;3174;53.486;9.568;2023-03-23T05:24:28;10.07;;;5.90;;
6282;SDS011;3174;53.486;9.568;2023-03-23T05:26:57;11.90;;;6.57;;
6282;SDS011;3174;53.486;9.568;2023-03-23T05:29:24;10.23;;;6.47;;
6282;SDS011;3174;53.486;9.568;2023-03-23T05:31:52;10.30;;;6.90;;
6282;SDS011;3174;53.486;9.568;2023-03-23T05:34:21;9.87;;;5.67;;
6282;SDS011;3174;53.486;9.568;2023-03-23T05:36:48;10.90;;;6.27;;
6282;SDS011;3174;53.486;9.568;2023-03-23T05:39:19;9.33;;;6.10;;
6282;SDS011;3174;53.486;9.568;2023-03-23T05:41:46;11.33;;;5.43;;
6282;SDS011;3174;53.486;9.568;2023-03-23T05:44:13;11.87;;;5.87;;
6282;SDS011;3174;53.486;9.568;2023-03-23T05:46:40;9.77;;;5.87;;
6282;SDS011;3174;53.486;9.568;2023-03-23T05:49:07;9.20;;;5.67;;
6282;SDS011;3174;53.486;9.568;2023-03-23T05:51:34;10.17;;;5.67;;
6282;SDS011;3174;53.486;9.568;2023-03-23T05:54:01;10.80;;;6.07;;
6282;SDS011;3174;53.486;9.568;2023-03-23T05:56:29;8.47;;;5.90;;
6282;SDS011;3174;53.486;9.568;2023-03-23T05:58:56;8.47;;;5.30;;
6282;SDS011;3174;53.486;9.568;2023-03-23T06:01:23;9.33;;;5.47;;
6282;SDS011;3174;53.486;9.568;2023-03-23T06:03:50;9.27;;;5.40;;
6282;SDS011;3174;53.486;9.568;2023-03-23T06:06:19;10.80;;;6.63;;
6282;SDS011;3174;53.486;9.568;2023-03-23T06:08:46;15.40;;;8.40;;
6282;SDS011;3174;53.486;9.568;2023-03-23T06:11:15;13.60;;;7.87;;
6282;SDS011;3174;53.486;9.568;2023-03-23T06:13:43;10.67;;;7.07;;
6282;SDS011;3174;53.486;9.568;2023-03-23T06:16:10;9.40;;;5.70;;
6282;SDS011;3174;53.486;9.568;2023-03-23T06:18:37;8.10;;;5.40;;
6282;SDS011;3174;53.486;9.568;2023-03-23T06:21:05;13.43;;;6.20;;
6282;SDS011;3174;53.486;9.568;2023-03-23T06:23:33;7.83;;;5.17;;
6282;SDS011;3174;53.486;9.568;2023-03-23T06:26:00;9.90;;;4.67;;
6282;SDS011;3174;53.486;9.568;2023-03-23T06:28:30;7.53;;;4.50;;
6282;SDS011;3174;53.486;9.568;2023-03-23T06:31:00;6.23;;;4.53;;
6282;SDS011;3174;53.486;9.568;2023-03-23T06:33:27;6.93;;;4.67;;
6282;SDS011;3174;53.486;9.568;2023-03-23T06:35:54;6.13;;;3.80;;
6282;SDS011;3174;53.486;9.568;2023-03-23T06:38:21;7.10;;;4.17;;
6282;SDS011;3174;53.486;9.568;2023-03-23T06:40:48;6.03;;;4.20;;
6282;SDS011;3174;53.486;9.568;2023-03-23T06:43:18;6.50;;;4.47;;
6282;SDS011;3174;53.486;9.568;2023-03-23T06:45:44;11.07;;;4.10;;
6282;SDS011;3174;53.486;9.568;2023-03-23T06:48:13;5.57;;;4.07;;
6282;SDS011;3174;53.486;9.568;2023-03-23T06:50:42;7.23;;;4.20;;
6282;SDS011;3174;53.486;9.568;2023-03-23T06:53:09;8.17;;;4.77;;
6282;SDS011;3174;53.486;9.568;2023-03-23T06:55:36;7.07;;;3.83;;
6282;SDS011;3174;53.486;9.568;2023-03-23T06:58:03;6.53;;;3.90;;
6282;SDS011;3174;53.486;9.568;2023-03-23T07:00:30;4.97;;;3.83;;
6282;SDS011;3174;53.486;9.568;2023-03-23T07:02:57;9.20;;;4.10;;
6282;SDS011;3174;53.486;9.568;2023-03-23T07:05:26;6.40;;;4.00;;
6282;SDS011;3174;53.486;9.568;2023-03-23T07:07:53;6.83;;;3.93;;
6282;SDS011;3174;53.486;9.568;2023-03-23T07:10:20;6.47;;;3.97;;
6282;SDS011;3174;53.486;9.568;2023-03-23T07:12:46;6.70;;;4.07;;
6282;SDS011;3174;53.486;9.568;2023-03-23T07:15:14;7.63;;;3.80;;
6282;SDS011;3174;53.486;9.568;2023-03-23T07:17:41;7.63;;;3.77;;
6282;SDS011;3174;53.486;9.568;2023-03-23T07:20:08;6.20;;;4.77;;
6282;SDS011;3174;53.486;9.568;2023-03-23T07:22:37;4.73;;;3.63;;
6282;SDS011;3174;53.486;9.568;2023-03-23T07:25:04;7.30;;;4.63;;
6282;SDS011;3174;53.486;9.568;2023-03-23T07:27:32;4.60;;;3.63;;
6282;SDS011;3174;53.486;9.568;2023-03-23T07:29:59;4.30;;;3.40;;
6282;SDS011;3174;53.486;9.568;2023-03-23T07:32:26;5.83;;;3.70;;
6282;SDS011;3174;53.486;9.568;2023-03-23T07:34:53;4.47;;;3.30;;
6282;SDS011;3174;53.486;9.568;2023-03-23T07:37:21;5.17;;;2.90;;
6282;SDS011;3174;53.486;9.568;2023-03-23T07:39:50;6.57;;;3.83;;
6282;SDS011;3174;53.486;9.568;2023-03-23T07:42:17;6.40;;;3.33;;
6282;SDS011;3174;53.486;9.568;2023-03-23T07:44:43;6.47;;;3.23;;
6282;SDS011;3174;53.486;9.568;2023-03-23T07:47:10;6.27;;;3.70;;
6282;SDS011;3174;53.486;9.568;2023-03-23T07:49:37;5.93;;;3.30;;
6282;SDS011;3174;53.486;9.568;2023-03-23T07:52:05;7.67;;;3.60;;
6282;SDS011;3174;53.486;9.568;2023-03-23T07:54:33;4.60;;;3.57;;
6282;SDS011;3174;53.486;9.568;2023-03-23T07:57:01;4.03;;;3.37;;
6282;SDS011;3174;53.486;9.568;2023-03-23T07:59:28;4.80;;;4.00;;
6282;SDS011;3174;53.486;9.568;2023-03-23T08:01:54;5.30;;;3.93;;
6282;SDS011;3174;53.486;9.568;2023-03-23T08:04:23;6.57;;;3.47;;
6282;SDS011;3174;53.486;9.568;2023-03-23T08:06:50;5.57;;;3.10;;
6282;SDS011;3174;53.486;9.568;2023-03-23T08:09:17;3.80;;;3.03;;
6282;SDS011;3174;53.486;9.568;2023-03-23T08:11:44;4.27;;;2.53;;
6282;SDS011;3174;53.486;9.568;2023-03-23T08:14:14;3.70;;;1.50;;
6282;SDS011;3174;53.486;9.568;2023-03-23T08:16:41;3.27;;;1.50;;
6282;SDS011;3174;53.486;9.568;2023-03-23T08:19:08;3.57;;;1.83;;
6282;SDS011;3174;53.486;9.568;2023-03-23T08:21:35;4.00;;;1.60;;
6282;SDS011;3174;53.486;9.568;2023-03-23T08:24:02;3.37;;;1.60;;
6282;SDS011;3174;53.486;9.568;2023-03-23T08:26:30;4.93;;;2.00;;
6282;SDS011;3174;53.486;9.568;2023-03-23T08:28:57;4.80;;;2.20;;
6282;SDS011;3174;53.486;9.568;2023-03-23T08:31:25;3.13;;;1.83;;
6282;SDS011;3174;53.486;9.568;2023-03-23T08:33:52;3.57;;;2.30;;
6282;SDS011;3174;53.486;9.568;2023-03-23T08:36:21;4.33;;;2.70;;
6282;SDS011;3174;53.486;9.568;2023-03-23T08:38:48;4.10;;;2.30;;
6282;SDS011;3174;53.486;9.568;2023-03-23T08:41:17;4.73;;;2.50;;
6282;SDS011;3174;53.486;9.568;2023-03-23T08:43:44;5.07;;;2.70;;
6282;SDS011;3174;53.486;9.568;2023-03-23T08:46:11;11.13;;;4.57;;
6282;SDS011;3174;53.486;9.568;2023-03-23T08:48:39;4.73;;;2.40;;
6282;SDS011;3174;53.486;9.568;2023-03-23T08:51:06;6.17;;;2.40;;
6282;SDS011;3174;53.486;9.568;2023-03-23T08:53:33;5.53;;;2.03;;
6282;SDS011;3174;53.486;9.568;2023-03-23T08:56:02;3.17;;;1.70;;
6282;SDS011;3174;53.486;9.568;2023-03-23T08:58:30;3.43;;;1.50;;
6282;SDS011;3174;53.486;9.568;2023-03-23T09:00:57;3.17;;;1.33;;
6282;SDS011;3174;53.486;9.568;2023-03-23T09:03:25;3.47;;;1.50;;
6282;SDS011;3174;53.486;9.568;2023-03-23T09:05:53;4.67;;;1.63;;
6282;SDS011;3174;53.486;9.568;2023-03-23T09:08:20;4.43;;;1.30;;
6282;SDS011;3174;53.486;9.568;2023-03-23T09:10:47;5.37;;;1.43;;
6282;SDS011;3174;53.486;9.568;2023-03-23T09:13:15;2.60;;;1.20;;
6282;SDS011;3174;53.486;9.568;2023-03-23T09:15:42;2.03;;;1.00;;
6282;SDS011;3174;53.486;9.568;2023-03-23T09:18:09;8.17;;;1.90;;
6282;SDS011;3174;53.486;9.568;2023-03-23T09:20:36;4.73;;;1.27;;
6282;SDS011;3174;53.486;9.568;2023-03-23T09:23:04;6.20;;;1.43;;
6282;SDS011;3174;53.486;9.568;2023-03-23T09:25:31;6.73;;;1.80;;
6282;SDS011;3174;53.486;9.568;2023-03-23T09:27:58;4.70;;;1.37;;
6282;SDS011;3174;53.486;9.568;2023-03-23T09:30:26;6.17;;;1.37;;
6282;SDS011;3174;53.486;9.568;2023-03-23T09:32:54;6.00;;;1.50;;
6282;SDS011;3174;53.486;9.568;2023-03-23T09:35:22;6.20;;;1.80;;
6282;SDS011;3174;53.486;9.568;2023-03-23T09:37:49;5.83;;;1.90;;
6282;SDS011;3174;53.486;9.568;2023-03-23T09:40:19;7.73;;;1.50;;
6282;SDS011;3174;53.486;9.568;2023-03-23T09:43:01;5.90;;;1.67;;
6282;SDS011;3174;53.486;9.568;2023-03-23T09:45:35;3.53;;;1.67;;
6282;SDS011;3174;53.486;9.568;2023-03-23T09:48:28;7.60;;;1.70;;
6282;SDS011;3174;53.486;9.568;2023-03-23T09:51:00;6.93;;;2.10;;
6282;SDS011;3174;53.486;9.568;2023-03-23T09:53:30;7.47;;;2.13;;
6282;SDS011;3174;53.486;9.568;2023-03-23T09:56:03;6.50;;;1.87;;
6282;SDS011;3174;53.486;9.568;2023-03-23T09:58:37;4.63;;;1.43;;
6282;SDS011;3174;53.486;9.568;2023-03-23T10:01:13;9.10;;;2.10;;
6282;SDS011;3174;53.486;9.568;2023-03-23T10:03:43;5.87;;;1.83;;
6282;SDS011;3174;53.486;9.568;2023-03-23T10:06:12;4.80;;;1.70;;
6282;SDS011;3174;53.486;9.568;2023-03-23T10:08:43;4.60;;;2.00;;
6282;SDS011;3174;53.486;9.568;2023-03-23T10:11:14;8.73;;;2.40;;
6282;SDS011;3174;53.486;9.568;2023-03-23T10:13:52;8.47;;;1.90;;
6282;SDS011;3174;53.486;9.568;2023-03-23T10:16:34;5.37;;;2.23;;
6282;SDS011;3174;53.486;9.568;2023-03-23T10:19:07;15.47;;;5.70;;
6282;SDS011;3174;53.486;9.568;2023-03-23T10:21:38;7.60;;;2.70;;
6282;SDS011;3174;53.486;9.568;2023-03-23T10:24:09;5.63;;;1.87;;
6282;SDS011;3174;53.486;9.568;2023-03-23T10:26:41;4.07;;;1.90;;
6282;SDS011;3174;53.486;9.568;2023-03-23T10:29:16;7.17;;;1.97;;
6282;SDS011;3174;53.486;9.568;2023-03-23T10:31:46;7.37;;;2.13;;
6282;SDS011;3174;53.486;9.568;2023-03-23T10:34:17;8.40;;;1.87;;
6282;SDS011;3174;53.486;9.568;2023-03-23T10:36:51;4.97;;;1.80;;
6282;SDS011;3174;53.486;9.568;2023-03-23T10:39:23;4.13;;;1.43;;
6282;SDS011;3174;53.486;9.568;2023-03-23T10:41:52;5.90;;;1.77;;
6282;SDS011;3174;53.486;9.568;2023-03-23T10:44:19;6.67;;;1.80;;
6282;SDS011;3174;53.486;9.568;2023-03-23T10:46:49;6.13;;;1.87;;
6282;SDS011;3174;53.486;9.568;2023-03-23T10:49:19;7.77;;;1.73;;
6282;SDS011;3174;53.486;9.568;2023-03-23T10:51:50;6.97;;;2.13;;
6282;SDS011;3174;53.486;9.568;2023-03-23T10:54:25;4.63;;;1.57;;
6282;SDS011;3174;53.486;9.568;2023-03-23T10:56:55;6.47;;;2.13;;
6282;SDS011;3174;53.486;9.568;2023-03-23T10:59:26;4.97;;;1.97;;
6282;SDS011;3174;53.486;9.568;2023-03-23T11:01:54;5.07;;;1.57;;
6282;SDS011;3174;53.486;9.568;2023-03-23T11:04:24;3.07;;;1.70;;
6282;SDS011;3174;53.486;9.568;2023-03-23T11:06:52;8.83;;;2.00;;
6282;SDS011;3174;53.486;9.568;2023-03-23T11:09:21;7.43;;;1.97;;
6282;SDS011;3174;53.486;9.568;2023-03-23T11:12:02;7.50;;;2.17;;
6282;SDS011;3174;53.486;9.568;2023-03-23T11:14:29;6.00;;;2.10;;
6282;SDS011;3174;53.486;9.568;2023-03-23T11:16:58;4.77;;;2.10;;
6282;SDS011;3174;53.486;9.568;2023-03-23T11:19:27;7.47;;;2.17;;
6282;SDS011;3174;53.486;9.568;2023-03-23T11:21:57;7.13;;;1.83;;
6282;SDS011;3174;53.486;9.568;2023-03-23T11:24:31;9.97;;;2.20;;
6282;SDS011;3174;53.486;9.568;2023-03-23T11:26:59;7.87;;;1.90;;
6282;SDS011;3174;53.486;9.568;2023-03-23T11:29:29;5.70;;;2.03;;
6282;SDS011;3174;53.486;9.568;2023-03-23T11:32:01;6.53;;;1.90;;
6282;SDS011;3174;53.486;9.568;2023-03-23T11:34:35;3.70;;;2.03;;
6282;SDS011;3174;53.486;9.568;2023-03-23T11:37:07;5.30;;;2.20;;
6282;SDS011;3174;53.486;9.568;2023-03-23T11:39:46;4.77;;;1.73;;
6282;SDS011;3174;53.486;9.568;2023-03-23T11:42:18;7.20;;;2.53;;
6282;SDS011;3174;53.486;9.568;2023-03-23T11:44:47;5.77;;;2.00;;
6282;SDS011;3174;53.486;9.568;2023-03-23T11:47:16;7.37;;;2.10;;
6282;SDS011;3174;53.486;9.568;2023-03-23T11:49:49;8.60;;;2.10;;
6282;SDS011;3174;53.486;9.568;2023-03-23T11:52:20;2.97;;;1.60;;
6282;SDS011;3174;53.486;9.568;2023-03-23T11:54:52;8.70;;;2.20;;
6282;SDS011;3174;53.486;9.568;2023-03-23T11:57:23;6.63;;;2.23;;
6282;SDS011;3174;53.486;9.568;2023-03-23T11:59:51;3.43;;;2.20;;
6282;SDS011;3174;53.486;9.568;2023-03-23T12:02:23;6.07;;;2.10;;
6282;SDS011;3174;53.486;9.568;2023-03-23T12:05:00;5.40;;;2.33;;
6282;SDS011;3174;53.486;9.568;2023-03-23T12:07:51;7.67;;;2.20;;
6282;SDS011;3174;53.486;9.568;2023-03-23T12:10:27;9.13;;;2.00;;
6282;SDS011;3174;53.486;9.568;2023-03-23T12:13:02;6.13;;;2.07;;
6282;SDS011;3174;53.486;9.568;2023-03-23T12:15:51;6.10;;;2.07;;
6282;SDS011;3174;53.486;9.568;2023-03-23T12:18:24;8.47;;;2.40;;
6282;SDS011;3174;53.486;9.568;2023-03-23T12:21:02;7.73;;;2.63;;
6282;SDS011;3174;53.486;9.568;2023-03-23T12:23:37;7.87;;;2.43;;
6282;SDS011;3174;53.486;9.568;2023-03-23T12:26:11;8.87;;;2.37;;
6282;SDS011;3174;53.486;9.568;2023-03-23T12:28:51;7.07;;;2.63;;
6282;SDS011;3174;53.486;9.568;2023-03-23T12:31:30;10.60;;;2.67;;
6282;SDS011;3174;53.486;9.568;2023-03-23T12:34:03;9.37;;;2.53;;
6282;SDS011;3174;53.486;9.568;2023-03-23T12:36:38;6.40;;;2.27;;
6282;SDS011;3174;53.486;9.568;2023-03-23T12:42:26;6.00;;;2.30;;
6282;SDS011;3174;53.486;9.568;2023-03-23T12:45:00;6.70;;;2.70;;
6282;SDS011;3174;53.486;9.568;2023-03-23T12:47:36;7.70;;;2.33;;
6282;SDS011;3174;53.486;9.568;2023-03-23T12:50:07;6.23;;;2.50;;
6282;SDS011;3174;53.486;9.568;2023-03-23T12:52:41;7.83;;;2.57;;
6282;SDS011;3174;53.486;9.568;2023-03-23T12:55:14;4.83;;;2.10;;
6282;SDS011;3174;53.486;9.568;2023-03-23T12:57:45;4.87;;;2.20;;
6282;SDS011;3174;53.486;9.568;2023-03-23T13:00:19;5.60;;;2.40;;
6282;SDS011;3174;53.486;9.568;2023-03-23T13:02:51;7.13;;;2.47;;
6282;SDS011;3174;53.486;9.568;2023-03-23T13:05:32;3.43;;;1.63;;
6282;SDS011;3174;53.486;9.568;2023-03-23T13:08:03;4.40;;;1.87;;
6282;SDS011;3174;53.486;9.568;2023-03-23T13:10:33;3.73;;;2.00;;
6282;SDS011;3174;53.486;9.568;2023-03-23T13:13:02;8.30;;;2.00;;
6282;SDS011;3174;53.486;9.568;2023-03-23T13:15:32;5.03;;;2.00;;
6282;SDS011;3174;53.486;9.568;2023-03-23T13:18:08;4.20;;;1.80;;
6282;SDS011;3174;53.486;9.568;2023-03-23T13:23:28;6.53;;;1.83;;
6282;SDS011;3174;53.486;9.568;2023-03-23T13:25:59;5.30;;;2.00;;
6282;SDS011;3174;53.486;9.568;2023-03-23T13:28:29;3.33;;;1.90;;
6282;SDS011;3174;53.486;9.568;2023-03-23T13:31:01;5.67;;;2.30;;
6282;SDS011;3174;53.486;9.568;2023-03-23T13:33:32;2.80;;;1.93;;
6282;SDS011;3174;53.486;9.568;2023-03-23T13:38:55;7.40;;;1.90;;
6282;SDS011;3174;53.486;9.568;2023-03-23T13:41:24;7.13;;;2.10;;
6282;SDS011;3174;53.486;9.568;2023-03-23T13:43:52;3.67;;;2.10;;
6282;SDS011;3174;53.486;9.568;2023-03-23T13:46:25;3.87;;;1.70;;
6282;SDS011;3174;53.486;9.568;2023-03-23T13:51:51;1.33;;;0.90;;
6282;SDS011;3174;53.486;9.568;2023-03-23T13:54:40;2.13;;;1.00;;
6282;SDS011;3174;53.486;9.568;2023-03-23T13:57:24;1.20;;;0.87;;
6282;SDS011;3174;53.486;9.568;2023-03-23T14:00:04;2.30;;;1.00;;
6282;SDS011;3174;53.486;9.568;2023-03-23T14:02:38;3.80;;;1.00;;
6282;SDS011;3174;53.486;9.568;2023-03-23T14:05:22;2.27;;;1.20;;
6282;SDS011;3174;53.486;9.568;2023-03-23T14:10:48;1.57;;;0.87;;
6282;SDS011;3174;53.486;9.568;2023-03-23T14:13:20;2.20;;;1.00;;
6282;SDS011;3174;53.486;9.568;2023-03-23T14:15:57;1.73;;;1.00;;
6282;SDS011;3174;53.486;9.568;2023-03-23T14:18:39;1.43;;;0.90;;
6282;SDS011;3174;53.486;9.568;2023-03-23T14:21:14;1.30;;;1.00;;
6282;SDS011;3174;53.486;9.568;2023-03-23T14:23:45;1.27;;;0.90;;
6282;SDS011;3174;53.486;9.568;2023-03-23T14:26:19;5.13;;;1.63;;
6282;SDS011;3174;53.486;9.568;2023-03-23T14:28:50;2.33;;;1.60;;
6282;SDS011;3174;53.486;9.568;2023-03-23T14:31:25;1.93;;;1.17;;
6282;SDS011;3174;53.486;9.568;2023-03-23T14:33:54;3.07;;;1.17;;
6282;SDS011;3174;53.486;9.568;2023-03-23T14:36:38;3.47;;;1.40;;
6282;SDS011;3174;53.486;9.568;2023-03-23T14:39:06;4.30;;;1.60;;
6282;SDS011;3174;53.486;9.568;2023-03-23T14:41:39;2.60;;;0.90;;
6282;SDS011;3174;53.486;9.568;2023-03-23T14:44:10;1.33;;;1.00;;
6282;SDS011;3174;53.486;9.568;2023-03-23T14:46:41;3.00;;;1.20;;
6282;SDS011;3174;53.486;9.568;2023-03-23T14:49:10;2.00;;;1.20;;
6282;SDS011;3174;53.486;9.568;2023-03-23T14:51:47;4.47;;;1.23;;
6282;SDS011;3174;53.486;9.568;2023-03-23T14:54:19;3.40;;;1.27;;
6282;SDS011;3174;53.486;9.568;2023-03-23T14:56:49;2.50;;;1.10;;
6282;SDS011;3174;53.486;9.568;2023-03-23T14:59:17;2.20;;;1.30;;
6282;SDS011;3174;53.486;9.568;2023-03-23T15:01:44;3.87;;;1.33;;
6282;SDS011;3174;53.486;9.568;2023-03-23T15:04:13;2.97;;;1.00;;
6282;SDS011;3174;53.486;9.568;2023-03-23T15:06:43;3.00;;;1.50;;
6282;SDS011;3174;53.486;9.568;2023-03-23T15:09:14;4.77;;;2.37;;
6282;SDS011;3174;53.486;9.568;2023-03-23T15:11:49;33.10;;;15.40;;
6282;SDS011;3174;53.486;9.568;2023-03-23T15:14:19;3.37;;;2.40;;
6282;SDS011;3174;53.486;9.568;2023-03-23T15:16:48;2.13;;;1.60;;
6282;SDS011;3174;53.486;9.568;2023-03-23T15:19:18;4.43;;;1.70;;
6282;SDS011;3174;53.486;9.568;2023-03-23T15:21:49;3.07;;;1.20;;
6282;SDS011;3174;53.486;9.568;2023-03-23T15:24:24;2.70;;;1.53;;
6282;SDS011;3174;53.486;9.568;2023-03-23T15:26:53;1.47;;;1.20;;
6282;SDS011;3174;53.486;9.568;2023-03-23T15:29:21;2.40;;;1.47;;
6282;SDS011;3174;53.486;9.568;2023-03-23T15:31:49;2.77;;;1.77;;
6282;SDS011;3174;53.486;9.568;2023-03-23T15:34:20;2.37;;;1.47;;
6282;SDS011;3174;53.486;9.568;2023-03-23T15:36:54;2.70;;;1.33;;
6282;SDS011;3174;53.486;9.568;2023-03-23T15:39:23;3.80;;;1.47;;
6282;SDS011;3174;53.486;9.568;2023-03-23T15:41:50;2.43;;;1.10;;
6282;SDS011;3174;53.486;9.568;2023-03-23T15:44:20;4.83;;;1.33;;